Alpha, Ohio
Current Conditions -  °F | °C
As of 5:40 PM on Tuesday 21 Oct 2014 (Local Time) from KFFO Reporting Station
Overcast Overcast  
Wind Chill: 10°   Ceiling: 2500
Heat Index: 10°   Visibility: 10mi
Dew Point:   Wind: 5mph
Humidity: 82%   Direction: 340°NNW
Pressure: 30.09"   Gusts: NA
Location:  39.71°N, 84.02°W
Report Text: KFFO 212140Z 34004KT 10SM FEW014 BKN025 OVC040 10/07 A3009 RMK AO2A SL192
Loading
Personal Weather Stations






























Interactive Weather Map
Tropical Storm Tracking
New forecast layout! Learn more

10-Day Weather Forecast

Advertisements
Track Severe Weather on mobile